createdAt,value
2017-12-20T00:02:00.831Z,13.50
2017-12-20T00:04:27.450Z,14.17
2017-12-20T00:06:54.084Z,12.37
2017-12-20T00:09:20.699Z,13.93
2017-12-20T00:11:48.260Z,13.70
2017-12-20T00:14:14.868Z,13.30
2017-12-20T00:16:41.514Z,13.07
2017-12-20T00:19:08.882Z,13.40
2017-12-20T00:21:36.047Z,13.03
2017-12-20T00:24:02.686Z,12.60
2017-12-20T00:26:29.272Z,15.97
2017-12-20T00:28:55.913Z,13.00
2017-12-20T00:31:22.495Z,13.23
2017-12-20T00:33:49.113Z,12.23
2017-12-20T00:36:15.719Z,12.60
2017-12-20T00:38:42.352Z,11.93
2017-12-20T00:41:08.988Z,11.60
2017-12-20T00:43:35.589Z,12.10
2017-12-20T00:46:02.204Z,12.27
2017-12-20T00:48:28.792Z,12.67
2017-12-20T00:50:55.396Z,12.70
2017-12-20T00:53:22.017Z,12.23
2017-12-20T00:55:48.629Z,11.20
2017-12-20T00:58:15.250Z,10.53
2017-12-20T01:00:41.874Z,10.23
2017-12-20T01:03:08.516Z,10.43
2017-12-20T01:05:35.111Z,10.50
2017-12-20T01:08:01.712Z,9.83
2017-12-20T01:10:28.338Z,10.37
2017-12-20T01:12:54.955Z,9.57
2017-12-20T01:15:21.554Z,9.60
2017-12-20T01:17:48.153Z,9.83
2017-12-20T01:20:14.768Z,11.70
2017-12-20T01:22:41.388Z,9.77
2017-12-20T01:25:08.021Z,10.00
2017-12-20T01:27:34.600Z,9.63
2017-12-20T01:30:01.215Z,9.57
2017-12-20T01:32:27.809Z,10.20
2017-12-20T01:34:54.417Z,10.47
2017-12-20T01:37:21.023Z,10.70
2017-12-20T01:39:47.637Z,9.83
2017-12-20T01:42:14.249Z,10.10
2017-12-20T01:44:40.851Z,9.50
2017-12-20T01:47:07.479Z,9.63
2017-12-20T01:49:34.097Z,8.47
2017-12-20T01:52:00.777Z,9.50
2017-12-20T01:54:27.360Z,8.50
2017-12-20T01:56:53.963Z,8.50
2017-12-20T01:59:20.532Z,9.00
2017-12-20T02:01:47.141Z,8.97
2017-12-20T02:04:13.740Z,9.30
2017-12-20T02:06:40.368Z,8.70
2017-12-20T02:09:06.964Z,8.60
2017-12-20T02:11:33.581Z,8.73
2017-12-20T02:14:00.164Z,9.63
2017-12-20T02:16:26.756Z,9.10
2017-12-20T02:18:53.372Z,10.30
2017-12-20T02:21:19.991Z,10.50
2017-12-20T02:23:46.602Z,10.27
2017-12-20T02:26:13.189Z,10.93
2017-12-20T02:28:39.804Z,10.23
2017-12-20T02:31:06.393Z,10.10
2017-12-20T02:33:33.894Z,9.77
2017-12-20T02:36:00.525Z,11.17
2017-12-20T02:38:33.052Z,10.17
2017-12-20T02:40:59.659Z,10.40
2017-12-20T02:43:26.269Z,9.83
2017-12-20T02:45:52.883Z,10.20
2017-12-20T02:48:19.516Z,9.50
2017-12-20T02:50:46.108Z,10.30
2017-12-20T02:53:12.748Z,11.73
2017-12-20T02:55:39.371Z,10.90
2017-12-20T02:58:05.976Z,11.17
2017-12-20T03:00:32.588Z,11.90
2017-12-20T03:02:59.180Z,11.57
2017-12-20T03:05:25.800Z,12.03
2017-12-20T03:07:52.404Z,13.07
2017-12-20T03:10:19.024Z,12.00
2017-12-20T03:12:45.620Z,12.00
2017-12-20T03:15:12.225Z,11.83
2017-12-20T03:17:38.852Z,12.73
2017-12-20T03:20:05.482Z,13.30
2017-12-20T03:22:32.069Z,13.43
2017-12-20T03:24:58.684Z,12.10
2017-12-20T03:27:25.297Z,12.00
2017-12-20T03:29:51.893Z,13.53
2017-12-20T03:32:18.554Z,13.60
2017-12-20T03:34:45.165Z,13.30
2017-12-20T03:37:11.755Z,13.83
2017-12-20T03:39:38.359Z,13.97
2017-12-20T03:42:04.949Z,12.80
2017-12-20T03:44:31.560Z,13.77
2017-12-20T03:46:58.749Z,13.60
2017-12-20T03:49:25.419Z,13.10
2017-12-20T03:51:52.050Z,13.47
2017-12-20T03:54:18.673Z,13.37
2017-12-20T03:56:45.273Z,13.07
2017-12-20T03:59:11.882Z,14.20
2017-12-20T04:01:38.511Z,13.77
2017-12-20T04:04:05.116Z,13.03
2017-12-20T04:06:31.719Z,12.60
2017-12-20T04:08:58.312Z,12.40
2017-12-20T04:11:24.940Z,14.13
2017-12-20T04:13:51.530Z,14.17
2017-12-20T04:16:18.135Z,14.57
2017-12-20T04:18:44.730Z,12.00
2017-12-20T04:21:11.390Z,12.07
2017-12-20T04:23:37.966Z,12.80
2017-12-20T04:26:04.561Z,11.50
2017-12-20T04:28:31.153Z,10.07
2017-12-20T04:30:57.791Z,12.43
2017-12-20T04:33:24.404Z,10.60
2017-12-20T04:35:51.023Z,11.53
2017-12-20T04:38:17.679Z,11.20
2017-12-20T04:40:44.317Z,10.53
2017-12-20T04:43:10.922Z,9.90
2017-12-20T04:45:37.529Z,10.13
2017-12-20T04:48:04.140Z,10.00
2017-12-20T04:50:30.745Z,9.50
2017-12-20T04:52:57.336Z,9.40
2017-12-20T04:55:23.932Z,9.60
2017-12-20T04:57:50.524Z,10.03
2017-12-20T05:00:17.181Z,7.90
2017-12-20T05:02:43.771Z,8.73
2017-12-20T05:05:10.406Z,8.57
2017-12-20T05:07:36.960Z,9.80
2017-12-20T05:10:03.576Z,8.90
2017-12-20T05:12:30.168Z,7.47
2017-12-20T05:14:56.765Z,8.90
2017-12-20T05:17:23.368Z,9.10
2017-12-20T05:19:49.953Z,10.07
2017-12-20T05:22:16.577Z,10.10
2017-12-20T05:24:43.186Z,10.70
2017-12-20T05:27:09.783Z,10.47
2017-12-20T05:29:36.367Z,10.90
2017-12-20T05:32:03.027Z,10.60
2017-12-20T05:34:29.632Z,9.80
2017-12-20T05:36:56.336Z,10.00
2017-12-20T05:39:22.932Z,10.90
2017-12-20T05:41:49.545Z,10.17
2017-12-20T05:44:16.144Z,8.20
2017-12-20T05:46:42.742Z,7.07
2017-12-20T05:49:09.339Z,6.97
2017-12-20T05:51:35.932Z,8.37
2017-12-20T05:54:02.521Z,6.80
2017-12-20T05:56:29.139Z,6.33
2017-12-20T05:58:55.727Z,7.70
2017-12-20T06:01:22.400Z,7.50
2017-12-20T06:03:48.975Z,7.97
2017-12-20T06:06:15.590Z,7.43
2017-12-20T06:08:42.177Z,7.80
2017-12-20T06:11:08.769Z,7.60
2017-12-20T06:13:35.363Z,6.67
2017-12-20T06:16:01.964Z,7.00
2017-12-20T06:18:28.597Z,7.23
2017-12-20T06:20:55.225Z,7.50
2017-12-20T06:23:21.880Z,7.13
2017-12-20T06:25:48.479Z,8.07
2017-12-20T06:28:15.083Z,7.87
2017-12-20T06:30:41.760Z,8.07
2017-12-20T06:33:08.553Z,8.70
2017-12-20T06:35:35.134Z,9.17
2017-12-20T06:38:01.732Z,8.30
2017-12-20T06:40:28.359Z,8.80
2017-12-20T06:42:55.026Z,8.47
2017-12-20T06:45:21.684Z,9.27
2017-12-20T06:47:48.372Z,9.03
2017-12-20T06:50:15.115Z,7.67
2017-12-20T06:52:41.724Z,9.63
2017-12-20T06:55:08.357Z,8.57
2017-12-20T06:57:35.048Z,9.20
2017-12-20T07:00:01.728Z,9.80
2017-12-20T07:02:28.314Z,8.70
2017-12-20T07:04:54.947Z,8.70
2017-12-20T07:07:21.639Z,10.20
2017-12-20T07:09:48.247Z,9.33
2017-12-20T07:12:14.873Z,9.63
2017-12-20T07:14:41.448Z,8.77
2017-12-20T07:17:08.081Z,10.03
2017-12-20T07:19:34.742Z,9.30
2017-12-20T07:22:01.302Z,9.53
2017-12-20T07:24:27.928Z,10.43
2017-12-20T07:26:54.525Z,11.10
2017-12-20T07:29:21.176Z,10.40
2017-12-20T07:31:47.776Z,9.70
2017-12-20T07:34:14.392Z,10.77
2017-12-20T07:36:41.019Z,9.53
2017-12-20T07:39:07.636Z,10.00
2017-12-20T07:41:34.262Z,9.50
2017-12-20T07:44:00.871Z,9.50
2017-12-20T07:46:27.491Z,9.80
2017-12-20T07:48:54.131Z,10.27
2017-12-20T07:51:20.784Z,11.13
2017-12-20T07:53:47.403Z,11.27
2017-12-20T07:56:14.077Z,9.60
2017-12-20T07:58:40.659Z,11.00
2017-12-20T08:01:07.322Z,9.80
2017-12-20T08:03:34.099Z,10.33
2017-12-20T08:06:00.787Z,11.30
2017-12-20T08:08:27.466Z,10.20
2017-12-20T08:10:54.063Z,11.40
2017-12-20T08:13:20.791Z,11.03
2017-12-20T08:15:47.398Z,13.20
2017-12-20T08:18:14.013Z,12.27
2017-12-20T08:20:40.698Z,9.77
2017-12-20T08:23:07.281Z,10.53
2017-12-20T08:25:33.888Z,10.13
2017-12-20T08:28:00.592Z,10.23
2017-12-20T08:30:27.196Z,11.07
2017-12-20T08:32:53.833Z,10.23
2017-12-20T08:35:20.445Z,10.53
2017-12-20T08:37:47.064Z,10.47
2017-12-20T08:40:13.730Z,9.40
2017-12-20T08:42:40.340Z,10.07
2017-12-20T08:45:06.930Z,9.80
2017-12-20T08:47:33.584Z,10.07
2017-12-20T08:50:00.182Z,10.97
2017-12-20T08:52:26.826Z,9.67
2017-12-20T08:54:53.481Z,10.37
2017-12-20T08:57:20.100Z,9.13
2017-12-20T08:59:46.717Z,8.60
2017-12-20T09:02:13.364Z,9.70
2017-12-20T09:04:39.978Z,10.37
2017-12-20T09:07:06.596Z,9.87
2017-12-20T09:09:33.203Z,10.30
2017-12-20T09:11:59.873Z,19.43
2017-12-20T09:14:26.530Z,23.60
2017-12-20T09:16:53.231Z,22.53
2017-12-20T09:19:19.815Z,17.83
2017-12-20T09:21:46.453Z,11.77
2017-12-20T09:24:13.076Z,10.27
2017-12-20T09:26:39.676Z,11.37
2017-12-20T09:29:06.294Z,9.57
2017-12-20T09:31:32.901Z,8.70
2017-12-20T09:34:00.390Z,8.70
2017-12-20T09:36:27.067Z,8.90
2017-12-20T09:38:53.776Z,10.27
2017-12-20T09:41:20.379Z,9.10
2017-12-20T09:43:47.012Z,9.47
2017-12-20T09:46:13.648Z,9.70
2017-12-20T09:48:40.264Z,10.17
2017-12-20T09:51:06.892Z,9.27
2017-12-20T09:53:33.477Z,10.47
2017-12-20T09:56:00.102Z,8.87
2017-12-20T09:58:26.806Z,10.30
2017-12-20T10:00:53.409Z,9.50
2017-12-20T10:03:19.995Z,8.60
2017-12-20T10:05:46.631Z,9.07
2017-12-20T10:08:13.246Z,9.53
2017-12-20T10:10:39.895Z,8.37
2017-12-20T10:13:06.520Z,8.07
2017-12-20T10:15:33.116Z,8.87
2017-12-20T10:17:59.728Z,8.33
2017-12-20T10:20:26.331Z,7.60
2017-12-20T10:22:52.951Z,7.90
2017-12-20T10:25:19.556Z,8.20
2017-12-20T10:27:46.269Z,7.47
2017-12-20T10:30:12.977Z,7.67
2017-12-20T10:32:39.572Z,6.90
2017-12-20T10:35:06.215Z,7.40
2017-12-20T10:37:32.868Z,10.53
2017-12-20T10:39:59.483Z,19.67
2017-12-20T10:42:26.139Z,24.87
2017-12-20T10:44:52.754Z,9.70
2017-12-20T10:47:19.335Z,8.07
2017-12-20T10:49:45.972Z,10.33
2017-12-20T10:52:12.572Z,7.40
2017-12-20T10:54:39.319Z,10.00
2017-12-20T10:57:05.953Z,8.67
2017-12-20T10:59:32.578Z,8.70
2017-12-20T11:01:59.205Z,9.80
2017-12-20T11:04:25.822Z,8.10
2017-12-20T11:06:52.421Z,7.40
2017-12-20T11:09:19.071Z,8.47
2017-12-20T11:11:45.770Z,8.50
2017-12-20T11:14:12.411Z,8.00
2017-12-20T11:16:39.014Z,7.97
2017-12-20T11:19:05.618Z,8.30
2017-12-20T11:21:32.261Z,7.33
2017-12-20T11:23:58.854Z,9.30
2017-12-20T11:26:25.445Z,9.80
2017-12-20T11:28:52.038Z,9.60
2017-12-20T11:31:18.785Z,11.80
2017-12-20T11:33:45.385Z,9.10
2017-12-20T11:36:11.973Z,10.43
2017-12-20T11:38:38.612Z,11.23
2017-12-20T11:41:05.237Z,11.10
2017-12-20T11:43:31.850Z,10.47
2017-12-20T11:45:58.481Z,12.17
2017-12-20T11:48:25.090Z,11.10
2017-12-20T11:50:51.692Z,13.80
2017-12-20T11:53:18.801Z,15.10
2017-12-20T11:55:45.520Z,15.57
2017-12-20T11:58:12.148Z,14.77
2017-12-20T12:00:38.755Z,14.40
2017-12-20T12:03:05.351Z,13.07
2017-12-20T12:05:31.985Z,22.60
2017-12-20T12:07:58.658Z,13.30
2017-12-20T12:10:25.314Z,13.63
2017-12-20T12:12:51.945Z,12.70
2017-12-20T12:15:18.571Z,12.13
2017-12-20T12:17:45.186Z,13.83
2017-12-20T12:20:11.827Z,11.70
2017-12-20T12:22:38.499Z,11.33
2017-12-20T12:25:05.141Z,11.67
2017-12-20T12:27:31.789Z,11.07
2017-12-20T12:29:58.504Z,11.63
2017-12-20T12:32:25.237Z,12.37
2017-12-20T12:34:51.923Z,11.60
2017-12-20T12:37:18.574Z,11.67
2017-12-20T12:39:45.213Z,9.90
2017-12-20T12:42:11.806Z,12.20
2017-12-20T12:44:38.483Z,10.10
2017-12-20T12:47:05.067Z,11.50
2017-12-20T12:49:31.760Z,11.97
2017-12-20T12:51:58.377Z,10.30
2017-12-20T12:54:24.989Z,10.93
2017-12-20T12:56:51.636Z,10.70
2017-12-20T12:59:18.232Z,11.30
2017-12-20T13:01:44.863Z,11.20
2017-12-20T13:04:11.479Z,10.73
2017-12-20T13:06:38.103Z,10.03
2017-12-20T13:09:04.692Z,11.80
2017-12-20T13:11:31.339Z,11.93
2017-12-20T13:13:57.942Z,11.90
2017-12-20T13:16:24.557Z,11.63
2017-12-20T13:18:51.173Z,10.93
2017-12-20T13:21:17.790Z,11.97
2017-12-20T13:23:44.589Z,11.27
2017-12-20T13:26:11.207Z,10.20
2017-12-20T13:28:37.863Z,9.70
2017-12-20T13:31:04.439Z,10.80
2017-12-20T13:33:31.339Z,12.73
2017-12-20T13:35:58.013Z,12.40
2017-12-20T13:38:24.651Z,11.03
2017-12-20T13:40:51.314Z,10.67
2017-12-20T13:43:17.934Z,9.00
2017-12-20T13:45:44.590Z,11.90
2017-12-20T13:48:11.181Z,9.77
2017-12-20T13:50:37.860Z,7.63
2017-12-20T13:53:04.458Z,9.00
2017-12-20T13:55:31.086Z,12.40
2017-12-20T13:57:57.740Z,8.60
2017-12-20T14:00:24.359Z,9.17
2017-12-20T14:02:50.959Z,9.93
2017-12-20T14:05:17.645Z,9.33
2017-12-20T14:07:44.235Z,10.90
2017-12-20T14:10:10.913Z,10.20
2017-12-20T14:12:37.548Z,9.37
2017-12-20T14:15:04.203Z,9.60
2017-12-20T14:17:30.809Z,8.07
2017-12-20T14:19:57.708Z,8.23
2017-12-20T14:22:24.346Z,7.70
2017-12-20T14:24:50.952Z,7.90
2017-12-20T14:27:17.566Z,7.07
2017-12-20T14:29:44.168Z,7.10
2017-12-20T14:32:10.785Z,7.10
2017-12-20T14:34:37.374Z,8.73
2017-12-20T14:37:04.195Z,9.60
2017-12-20T14:39:30.789Z,9.53
2017-12-20T14:41:57.418Z,8.30
2017-12-20T14:44:24.094Z,9.10
2017-12-20T14:46:50.738Z,7.13
2017-12-20T14:49:17.433Z,7.70
2017-12-20T14:51:44.079Z,6.97
2017-12-20T14:54:10.753Z,7.67
2017-12-20T14:56:37.492Z,7.43
2017-12-20T14:59:04.122Z,6.80
2017-12-20T15:01:30.770Z,8.53
2017-12-20T15:03:57.706Z,8.30
2017-12-20T15:06:25.948Z,7.80
2017-12-20T15:08:52.719Z,7.20
2017-12-20T15:11:19.318Z,8.47
2017-12-20T15:13:45.918Z,8.20
2017-12-20T15:16:12.569Z,8.80
2017-12-20T15:18:39.210Z,8.57
2017-12-20T15:21:05.836Z,7.50
2017-12-20T15:23:32.540Z,8.17
2017-12-20T15:25:59.176Z,8.40
2017-12-20T15:28:25.865Z,9.17
2017-12-20T15:30:52.527Z,8.87
2017-12-20T15:33:19.166Z,8.23
2017-12-20T15:35:45.837Z,12.40
2017-12-20T15:38:12.545Z,9.80
2017-12-20T15:40:39.178Z,10.93
2017-12-20T15:43:05.765Z,9.57
2017-12-20T15:45:32.903Z,10.30
2017-12-20T15:47:59.534Z,7.67
2017-12-20T15:50:26.164Z,9.37
2017-12-20T15:52:52.788Z,9.90
2017-12-20T15:55:19.398Z,10.37
2017-12-20T15:57:46.041Z,10.17
2017-12-20T16:00:12.636Z,10.00
2017-12-20T16:02:39.506Z,11.17
2017-12-20T16:05:06.157Z,10.80
2017-12-20T16:07:32.801Z,10.30
2017-12-20T16:09:59.504Z,10.77
2017-12-20T16:12:26.144Z,9.30
2017-12-20T16:14:52.922Z,9.97
2017-12-20T16:17:20.265Z,9.90
2017-12-20T16:19:46.869Z,10.07
2017-12-20T16:22:13.521Z,9.10
2017-12-20T16:24:40.172Z,10.17
2017-12-20T16:27:06.821Z,9.83
2017-12-20T16:29:33.454Z,11.27
2017-12-20T16:32:00.040Z,12.00
2017-12-20T16:34:26.759Z,10.70
2017-12-20T16:36:53.448Z,11.43
2017-12-20T16:39:20.157Z,10.00
2017-12-20T16:41:46.810Z,11.30
2017-12-20T16:44:13.535Z,11.50
2017-12-20T16:46:40.142Z,10.83
2017-12-20T16:49:06.759Z,11.10
2017-12-20T16:51:33.396Z,10.10
2017-12-20T16:53:59.992Z,10.40
2017-12-20T16:56:26.647Z,10.60
2017-12-20T16:58:53.259Z,12.27
2017-12-20T17:01:19.884Z,11.60
2017-12-20T17:03:46.496Z,11.67
2017-12-20T17:06:13.126Z,11.13
2017-12-20T17:08:39.791Z,11.80
2017-12-20T17:11:06.424Z,11.83
2017-12-20T17:13:33.100Z,11.17
2017-12-20T17:15:59.763Z,13.10
2017-12-20T17:18:26.399Z,11.70
2017-12-20T17:20:53.097Z,13.20
2017-12-20T17:23:19.755Z,11.20
2017-12-20T17:25:46.340Z,12.70
2017-12-20T17:28:13.073Z,10.83
2017-12-20T17:30:39.671Z,10.90
2017-12-20T17:33:06.298Z,12.43
2017-12-20T17:35:32.956Z,12.00
2017-12-20T17:37:59.683Z,12.10
2017-12-20T17:40:26.314Z,12.33
2017-12-20T17:42:52.965Z,12.60
2017-12-20T17:45:19.697Z,12.43
2017-12-20T17:47:46.291Z,12.73
2017-12-20T17:50:12.980Z,13.40
2017-12-20T17:52:39.617Z,14.00
2017-12-20T17:55:06.210Z,14.90
2017-12-20T17:57:32.911Z,12.20
2017-12-20T17:59:59.523Z,13.50
2017-12-20T18:02:26.351Z,11.33
2017-12-20T18:04:53.044Z,12.80
2017-12-20T18:07:19.654Z,13.03
2017-12-20T18:09:46.279Z,10.73
2017-12-20T18:12:12.946Z,12.87
2017-12-20T18:14:39.546Z,11.83
2017-12-20T18:17:06.174Z,13.67
2017-12-20T18:19:36.078Z,13.00
2017-12-20T18:22:02.753Z,13.00
2017-12-20T18:24:29.384Z,12.80
2017-12-20T18:26:56.117Z,13.20
2017-12-20T18:29:22.759Z,11.33
2017-12-20T18:31:49.447Z,12.17
2017-12-20T18:34:16.291Z,13.20
2017-12-20T18:36:42.971Z,12.47
2017-12-20T18:39:09.617Z,12.00
2017-12-20T18:41:38.618Z,13.47
2017-12-20T18:44:05.678Z,13.53
2017-12-20T18:46:34.521Z,13.67
2017-12-20T18:49:01.225Z,14.50
2017-12-20T18:51:28.300Z,14.50
2017-12-20T18:53:55.022Z,12.97
2017-12-20T18:56:21.602Z,11.73
2017-12-20T18:58:48.278Z,12.63
2017-12-20T19:01:17.666Z,11.87
2017-12-20T19:03:44.315Z,13.20
2017-12-20T19:06:11.321Z,13.97
2017-12-20T19:08:38.685Z,14.17
2017-12-20T19:11:05.360Z,13.97
2017-12-20T19:13:31.988Z,11.70
2017-12-20T19:15:58.720Z,12.10
2017-12-20T19:18:25.577Z,12.37
2017-12-20T19:20:52.228Z,10.30
2017-12-20T19:23:18.969Z,11.60
2017-12-20T19:25:47.250Z,11.13
2017-12-20T19:28:13.945Z,11.80
2017-12-20T19:30:40.598Z,12.00
2017-12-20T19:33:07.394Z,12.07
2017-12-20T19:35:34.006Z,10.60
2017-12-20T19:38:00.784Z,10.13
2017-12-20T19:40:27.387Z,9.83
2017-12-20T19:42:54.057Z,9.87
2017-12-20T19:45:20.673Z,12.00
2017-12-20T19:47:47.306Z,11.23
2017-12-20T19:50:14.702Z,10.83
2017-12-20T19:52:41.356Z,11.87
2017-12-20T19:55:08.003Z,11.40
2017-12-20T19:57:34.627Z,12.10
2017-12-20T20:00:01.246Z,12.30
2017-12-20T20:02:27.906Z,12.17
2017-12-20T20:04:54.556Z,11.60
2017-12-20T20:07:22.053Z,12.03
2017-12-20T20:09:48.799Z,11.47
2017-12-20T20:12:15.445Z,11.90
2017-12-20T20:14:42.101Z,12.10
2017-12-20T20:17:08.705Z,11.30
2017-12-20T20:19:35.351Z,11.47
2017-12-20T20:22:02.006Z,12.00
2017-12-20T20:24:28.684Z,11.83
2017-12-20T20:26:55.317Z,12.53
2017-12-20T20:29:21.939Z,12.10
2017-12-20T20:31:48.597Z,12.53
2017-12-20T20:34:15.219Z,11.13
2017-12-20T20:36:41.925Z,11.23
2017-12-20T20:39:08.615Z,13.10
2017-12-20T20:41:35.263Z,12.30
2017-12-20T20:44:02.022Z,13.60
2017-12-20T20:46:28.669Z,13.90
2017-12-20T20:48:55.338Z,14.47
2017-12-20T20:51:21.940Z,13.80
2017-12-20T20:53:48.589Z,19.30
2017-12-20T20:56:15.257Z,14.53
2017-12-20T20:58:41.911Z,13.23
2017-12-20T21:01:08.544Z,12.70
2017-12-20T21:03:35.217Z,13.60
2017-12-20T21:06:01.836Z,12.93
2017-12-20T21:08:28.482Z,13.37
2017-12-20T21:10:55.098Z,12.70
2017-12-20T21:13:21.710Z,12.90
2017-12-20T21:15:48.358Z,12.10
2017-12-20T21:18:14.963Z,11.10
2017-12-20T21:20:41.593Z,12.53
2017-12-20T21:23:08.229Z,10.47
2017-12-20T21:25:34.894Z,11.20
2017-12-20T21:28:01.502Z,11.70
2017-12-20T21:30:28.104Z,12.17
2017-12-20T21:32:54.900Z,13.00
2017-12-20T21:35:21.545Z,11.30
2017-12-20T21:37:48.293Z,11.50
2017-12-20T21:40:14.915Z,11.23
2017-12-20T21:42:41.784Z,11.57
2017-12-20T21:45:08.441Z,12.43
2017-12-20T21:47:35.909Z,11.20
2017-12-20T21:50:02.521Z,11.10
2017-12-20T21:52:29.159Z,12.60
2017-12-20T21:54:55.769Z,11.53
2017-12-20T21:57:22.387Z,12.63
2017-12-20T21:59:49.003Z,12.07
2017-12-20T22:02:16.230Z,12.10
2017-12-20T22:04:42.815Z,12.00
2017-12-20T22:07:09.671Z,12.73
2017-12-20T22:09:37.206Z,10.73
2017-12-20T22:12:03.797Z,10.97
2017-12-20T22:14:30.436Z,11.40
2017-12-20T22:16:57.051Z,11.20
2017-12-20T22:19:23.892Z,12.73
2017-12-20T22:21:50.484Z,10.13
2017-12-20T22:24:17.118Z,13.83
2017-12-20T22:26:43.723Z,14.63
2017-12-20T22:29:10.360Z,12.37
2017-12-20T22:31:36.961Z,11.20
2017-12-20T22:34:03.560Z,9.10
2017-12-20T22:36:30.881Z,11.05
2017-12-20T22:38:57.493Z,10.17
2017-12-20T22:41:24.107Z,9.93
2017-12-20T22:43:50.751Z,10.33
2017-12-20T22:46:17.332Z,9.50
2017-12-20T22:48:43.997Z,10.77
2017-12-20T22:51:10.602Z,10.63
2017-12-20T22:53:37.182Z,11.10
2017-12-20T22:56:03.836Z,11.70
2017-12-20T22:58:30.437Z,11.87
2017-12-20T23:00:57.058Z,10.97
2017-12-20T23:03:23.648Z,9.47
2017-12-20T23:05:50.244Z,8.37
2017-12-20T23:08:16.856Z,17.00
2017-12-20T23:10:43.492Z,9.47
2017-12-20T23:13:10.101Z,9.10
2017-12-20T23:15:36.701Z,9.93
2017-12-20T23:18:03.307Z,9.93
2017-12-20T23:20:29.918Z,8.80
2017-12-20T23:22:56.564Z,10.40
2017-12-20T23:25:23.159Z,9.87
2017-12-20T23:27:49.796Z,9.90
2017-12-20T23:30:16.376Z,10.67
2017-12-20T23:32:43.004Z,10.70
2017-12-20T23:35:09.606Z,11.90
2017-12-20T23:37:36.238Z,11.10
2017-12-20T23:40:02.870Z,10.40
2017-12-20T23:42:29.465Z,10.10
2017-12-20T23:44:56.086Z,9.50
2017-12-20T23:47:22.691Z,9.63
2017-12-20T23:49:49.293Z,10.40
2017-12-20T23:52:15.879Z,9.60
2017-12-20T23:54:42.493Z,9.80
2017-12-20T23:57:09.107Z,9.43
2017-12-20T23:59:35.713Z,9.63
